Time;durP1;ratioP1;P1;durP2;ratioP2;P2;SDS_P1;SDS_P2;PMS_P1;PMS_P2;Temp;Humidity;BMP_temperature;BMP_pressure;BME280_temperature;BME280_humidity;BME280_pressure;Samples;Min_cycle;Max_cycle;Signal;HPM_P1;HPM_P2
2021/03/03 00:00:38;;;;;;;34.40;16.23;;;8.70;99.90;;;;;;5033388;28;20028;-71
2021/03/03 00:03:04;;;;;;;40.85;16.67;;;8.60;99.90;;;;;;5033426;28;20025;-71
2021/03/03 00:05:30;;;;;;;28.23;15.02;;;8.70;99.90;;;;;;5050997;28;20033;-71
2021/03/03 00:07:55;;;;;;;24.60;14.70;;;8.70;99.90;;;;;;5051046;28;20026;-71
2021/03/03 00:10:21;;;;;;;25.90;15.13;;;8.60;99.90;;;;;;5050080;28;20029;-71
2021/03/03 00:12:47;;;;;;;25.08;15.75;;;8.60;99.90;;;;;;5032927;28;20474;-71
2021/03/03 00:15:13;;;;;;;24.33;15.40;;;8.60;99.90;;;;;;5050386;28;20027;-71
2021/03/03 00:17:39;;;;;;;29.55;14.55;;;8.60;99.90;;;;;;5051348;28;20050;-71
2021/03/03 00:20:06;;;;;;;28.20;15.77;;;8.70;99.90;;;;;;5050821;28;20037;-72
2021/03/03 00:22:32;;;;;;;26.98;15.10;;;8.60;99.90;;;;;;5050470;28;20045;-72
2021/03/03 00:24:57;;;;;;;26.58;14.63;;;8.60;99.90;;;;;;5050912;28;20021;-71
2021/03/03 00:27:23;;;;;;;28.92;14.80;;;8.60;99.90;;;;;;5049929;28;20476;-70
2021/03/03 00:29:48;;;;;;;25.27;14.45;;;8.60;99.90;;;;;;5054452;28;20025;-72
2021/03/03 00:32:14;;;;;;;23.38;14.93;;;8.50;99.90;;;;;;5036361;28;20033;-71
2021/03/03 00:34:40;;;;;;;25.98;14.70;;;8.50;99.90;;;;;;5054738;28;20033;-71
2021/03/03 00:37:05;;;;;;;26.15;14.90;;;8.40;99.90;;;;;;5054601;28;20029;-71
2021/03/03 00:39:31;;;;;;;25.70;15.25;;;8.40;99.90;;;;;;5035702;28;20401;-70
2021/03/03 00:41:57;;;;;;;25.83;14.75;;;8.40;99.90;;;;;;5036735;28;20166;-71
2021/03/03 00:44:23;;;;;;;23.42;15.02;;;8.30;99.90;;;;;;5053580;28;20032;-70
2021/03/03 00:46:49;;;;;;;25.42;14.85;;;8.40;99.90;;;;;;5036354;28;20033;-71
2021/03/03 00:49:14;;;;;;;25.48;15.05;;;8.40;99.90;;;;;;5035867;28;20025;-71
2021/03/03 00:51:40;;;;;;;22.98;15.20;;;8.40;99.90;;;;;;5054012;28;20059;-71
2021/03/03 00:54:06;;;;;;;23.70;15.52;;;8.30;99.90;;;;;;5054288;28;20032;-70
2021/03/03 00:56:32;;;;;;;30.85;16.45;;;8.30;99.90;;;;;;5053604;28;20021;-72
2021/03/03 00:58:57;;;;;;;30.80;16.02;;;8.20;99.90;;;;;;5053981;28;20029;-72
2021/03/03 01:01:23;;;;;;;36.38;16.85;;;8.30;99.90;;;;;;5053306;28;20124;-72
2021/03/03 01:03:48;;;;;;;26.67;16.48;;;8.30;99.90;;;;;;5053770;28;20029;-71
2021/03/03 01:06:14;;;;;;;25.33;16.85;;;8.30;99.90;;;;;;5035436;28;20094;-70
2021/03/03 01:08:41;;;;;;;26.50;15.98;;;8.30;99.90;;;;;;5036237;28;20029;-71
2021/03/03 01:11:07;;;;;;;21.38;14.77;;;8.20;99.90;;;;;;5035871;28;20525;-71
2021/03/03 01:13:34;;;;;;;24.85;16.75;;;8.20;99.90;;;;;;5053084;28;20375;-70
2021/03/03 01:16:00;;;;;;;23.02;15.23;;;8.20;99.90;;;;;;5036040;28;20390;-71
2021/03/03 01:18:26;;;;;;;26.08;14.88;;;8.20;99.90;;;;;;5035308;28;20116;-70
2021/03/03 01:20:52;;;;;;;22.63;14.85;;;8.10;99.90;;;;;;5053806;28;20035;-71
2021/03/03 01:23:17;;;;;;;24.23;15.68;;;8.10;99.90;;;;;;5060163;28;20444;-71
2021/03/03 01:25:43;;;;;;;28.65;15.77;;;8.10;99.90;;;;;;5073405;28;20025;-70
2021/03/03 01:28:11;;;;;;;24.70;15.23;;;8.20;99.90;;;;;;5072071;28;20024;-71
2021/03/03 01:30:37;;;;;;;27.02;14.52;;;8.10;99.90;;;;;;5072218;28;20032;-70
2021/03/03 01:33:03;;;;;;;27.90;16.02;;;8.20;99.90;;;;;;5073734;28;20039;-71
2021/03/03 01:35:30;;;;;;;21.02;14.30;;;8.10;99.90;;;;;;5071599;28;20065;-71
2021/03/03 01:37:55;;;;;;;28.92;15.00;;;8.00;99.90;;;;;;5073475;28;20028;-72
2021/03/03 01:40:22;;;;;;;25.40;14.43;;;7.70;99.90;;;;;;5071401;28;20174;-71
2021/03/03 01:42:47;;;;;;;24.33;13.68;;;7.60;99.90;;;;;;5073276;28;20386;-70
2021/03/03 01:45:13;;;;;;;21.42;14.25;;;7.50;99.90;;;;;;5071260;28;20382;-70
2021/03/03 01:47:39;;;;;;;26.13;14.65;;;7.60;99.90;;;;;;5073598;28;20028;-71
2021/03/03 01:50:09;;;;;;;22.20;14.65;;;7.80;99.90;;;;;;5073165;28;20029;-71
2021/03/03 01:52:38;;;;;;;23.42;15.18;;;7.80;99.90;;;;;;5071255;28;20102;-71
2021/03/03 01:55:04;;;;;;;23.38;14.73;;;7.60;99.90;;;;;;5071801;28;20033;-71
2021/03/03 01:57:31;;;;;;;27.00;14.63;;;7.60;99.90;;;;;;5072436;28;20025;-71
2021/03/03 01:59:57;;;;;;;28.73;14.95;;;7.80;99.90;;;;;;5071787;28;20414;-71
2021/03/03 02:02:24;;;;;;;25.77;15.68;;;7.70;99.90;;;;;;5072400;28;20031;-70
2021/03/03 02:04:54;;;;;;;23.45;15.40;;;7.70;99.90;;;;;;5072909;28;20050;-71
2021/03/03 02:07:47;;;;;;;26.05;15.23;;;7.60;99.90;;;;;;5072288;28;20391;-71
2021/03/03 02:10:32;;;;;;;21.52;13.93;;;7.60;99.90;;;;;;5072739;28;20025;-70
2021/03/03 02:13:16;;;;;;;24.25;14.52;;;7.70;99.90;;;;;;5072894;28;20154;-71
2021/03/03 02:15:45;;;;;;;22.48;14.30;;;7.60;99.90;;;;;;5071397;28;20060;-72
2021/03/03 02:18:11;;;;;;;24.65;14.13;;;7.50;99.90;;;;;;5070993;28;20054;-70
2021/03/03 02:21:12;;;;;;;24.67;15.18;;;7.40;99.90;;;;;;5072201;28;20032;-71
2021/03/03 02:23:48;;;;;;;20.90;13.55;;;7.10;99.90;;;;;;5062687;28;20048;-70
2021/03/03 02:26:15;;;;;;;21.20;13.50;;;7.20;99.90;;;;;;5070965;28;20020;-70
2021/03/03 02:28:41;;;;;;;20.63;14.43;;;7.20;99.90;;;;;;5072491;28;20035;-69
2021/03/03 02:31:07;;;;;;;22.33;14.45;;;7.20;99.90;;;;;;5072379;28;20044;-71
2021/03/03 02:33:34;;;;;;;22.80;14.63;;;7.20;99.90;;;;;;5071846;28;20032;-71
2021/03/03 02:36:00;;;;;;;26.15;13.75;;;7.30;99.90;;;;;;5071012;28;20326;-71
2021/03/03 02:38:27;;;;;;;23.05;13.85;;;7.40;99.90;;;;;;5070453;28;20067;-70
2021/03/03 02:40:54;;;;;;;22.13;14.63;;;7.40;99.90;;;;;;5070670;28;20034;-70
2021/03/03 02:43:20;;;;;;;21.05;14.15;;;7.30;99.90;;;;;;5070359;28;20078;-70
2021/03/03 02:45:47;;;;;;;21.63;13.90;;;6.90;99.90;;;;;;5070969;28;20036;-70
2021/03/03 02:48:15;;;;;;;25.10;13.85;;;7.00;99.90;;;;;;5072202;28;20032;-72
2021/03/03 02:50:41;;;;;;;22.35;14.40;;;7.10;99.90;;;;;;5070418;28;20052;-71
2021/03/03 02:53:07;;;;;;;23.85;14.30;;;7.10;99.90;;;;;;5070655;28;20028;-70
2021/03/03 02:55:33;;;;;;;24.38;15.10;;;7.10;99.90;;;;;;5071770;28;20033;-70
2021/03/03 02:58:00;;;;;;;23.80;14.82;;;7.10;99.90;;;;;;5070557;28;20085;-71
2021/03/03 03:00:32;;;;;;;23.05;14.73;;;7.10;99.90;;;;;;5070003;28;20035;-71
2021/03/03 03:03:05;;;;;;;21.58;14.07;;;7.10;99.90;;;;;;5070181;28;20028;-71
2021/03/03 03:05:33;;;;;;;24.42;15.63;;;7.20;99.90;;;;;;5069849;28;20077;-71
2021/03/03 03:08:02;;;;;;;23.70;15.05;;;7.10;99.90;;;;;;5071450;28;20061;-70
2021/03/03 03:10:29;;;;;;;30.25;14.52;;;7.10;99.90;;;;;;5069726;28;20110;-70
2021/03/03 03:12:57;;;;;;;38.15;14.82;;;7.00;99.90;;;;;;5071445;28;20051;-70
2021/03/03 03:15:26;;;;;;;21.83;12.65;;;7.00;99.90;;;;;;5071034;28;20036;-69
2021/03/03 03:17:58;;;;;;;24.50;14.63;;;7.00;99.90;;;;;;5071475;28;20021;-71
2021/03/03 03:20:25;;;;;;;24.15;14.98;;;7.00;99.90;;;;;;5069792;28;20024;-70
2021/03/03 03:22:51;;;;;;;23.55;14.32;;;6.90;99.90;;;;;;5060972;28;20049;-70
2021/03/03 03:25:18;;;;;;;26.40;14.30;;;6.90;99.90;;;;;;5033583;28;20059;-70
2021/03/03 03:27:46;;;;;;;24.83;14.98;;;6.90;99.90;;;;;;5051584;28;20029;-70
2021/03/03 03:30:13;;;;;;;26.10;14.27;;;6.90;99.90;;;;;;5033242;28;20025;-70
2021/03/03 03:32:40;;;;;;;30.75;15.82;;;7.00;99.90;;;;;;5050737;28;20040;-70
2021/03/03 03:35:07;;;;;;;26.27;15.27;;;7.00;99.90;;;;;;5051046;28;20037;-70
2021/03/03 03:37:33;;;;;;;23.15;14.68;;;6.90;99.90;;;;;;5050497;28;20083;-70
2021/03/03 03:40:00;;;;;;;23.70;13.50;;;6.80;99.90;;;;;;5033495;28;20028;-70
2021/03/03 03:42:28;;;;;;;23.17;13.43;;;6.50;99.90;;;;;;5050709;28;20170;-70
2021/03/03 03:44:56;;;;;;;27.23;15.32;;;6.70;99.90;;;;;;5050942;28;20429;-71
2021/03/03 03:47:22;;;;;;;25.67;14.68;;;6.80;99.90;;;;;;5032584;28;20121;-70
2021/03/03 03:49:49;;;;;;;28.13;14.68;;;6.80;99.90;;;;;;5051535;28;20052;-72
2021/03/03 03:52:19;;;;;;;25.27;15.40;;;6.80;99.90;;;;;;5050812;28;20036;-73
2021/03/03 03:54:52;;;;;;;26.33;15.70;;;6.90;99.90;;;;;;5033277;28;20029;-72
2021/03/03 03:57:19;;;;;;;22.45;13.95;;;6.90;99.90;;;;;;5050980;28;20147;-71
2021/03/03 03:59:45;;;;;;;24.02;14.35;;;6.90;99.90;;;;;;5051433;28;20489;-72
2021/03/03 04:02:11;;;;;;;21.40;15.00;;;6.80;99.90;;;;;;5050958;28;20029;-72
2021/03/03 04:04:37;;;;;;;23.85;14.57;;;6.60;99.90;;;;;;5053827;28;20112;-71
2021/03/03 04:07:04;;;;;;;29.55;14.88;;;6.60;99.90;;;;;;5054983;28;20102;-71
2021/03/03 04:09:30;;;;;;;22.42;14.57;;;6.70;99.90;;;;;;5036494;28;20040;-72
2021/03/03 04:11:56;;;;;;;24.63;14.95;;;6.80;99.90;;;;;;5054751;28;20029;-72
2021/03/03 04:14:23;;;;;;;22.23;14.10;;;6.80;99.90;;;;;;5036037;28;20029;-72
2021/03/03 04:16:49;;;;;;;24.33;14.45;;;6.80;99.90;;;;;;5037002;28;20063;-70
2021/03/03 04:19:14;;;;;;;24.38;14.63;;;6.80;99.90;;;;;;5054847;28;20029;-71
2021/03/03 04:21:40;;;;;;;21.95;13.98;;;6.80;99.90;;;;;;5053906;28;20612;-68
2021/03/03 04:24:06;;;;;;;25.35;14.93;;;6.80;99.90;;;;;;5036804;28;20025;-71
2021/03/03 04:26:32;;;;;;;20.85;13.02;;;6.80;99.90;;;;;;5053717;28;20428;-70
2021/03/03 04:28:58;;;;;;;23.63;13.93;;;6.90;99.90;;;;;;5054316;28;20111;-71
2021/03/03 04:31:23;;;;;;;26.25;14.52;;;6.80;99.90;;;;;;5035976;28;20040;-70
2021/03/03 04:33:49;;;;;;;21.73;14.50;;;6.90;99.90;;;;;;5036420;28;20459;-70
2021/03/03 04:36:14;;;;;;;29.00;14.70;;;6.70;99.90;;;;;;5054028;28;20072;-71
2021/03/03 04:38:40;;;;;;;23.48;13.00;;;6.70;99.90;;;;;;5034887;28;20021;-71
2021/03/03 04:41:05;;;;;;;21.38;13.80;;;6.80;99.90;;;;;;5053955;28;20024;-70
2021/03/03 04:43:31;;;;;;;28.75;14.77;;;6.80;99.90;;;;;;5035008;28;20052;-70
2021/03/03 04:45:57;;;;;;;23.65;14.20;;;6.90;99.90;;;;;;5054402;28;20078;-70
2021/03/03 04:48:22;;;;;;;20.80;13.20;;;6.90;99.90;;;;;;5035867;28;20158;-72
2021/03/03 04:50:48;;;;;;;21.85;14.00;;;6.70;99.90;;;;;;5035411;28;20025;-69
2021/03/03 04:53:14;;;;;;;21.17;13.00;;;6.70;99.90;;;;;;5035655;28;20037;-68
2021/03/03 04:55:40;;;;;;;29.90;15.00;;;6.80;99.90;;;;;;5034649;28;20021;-68
2021/03/03 04:58:06;;;;;;;26.98;15.73;;;6.80;99.90;;;;;;5053827;28;20031;-67
2021/03/03 05:00:34;;;;;;;27.10;14.20;;;6.80;99.90;;;;;;5034880;28;20083;-69
2021/03/03 05:03:00;;;;;;;23.42;14.90;;;7.10;99.90;;;;;;5053456;28;20112;-68
2021/03/03 05:05:25;;;;;;;25.58;14.32;;;7.00;99.90;;;;;;5035351;28;20056;-70
2021/03/03 05:07:51;;;;;;;23.63;14.10;;;6.90;99.90;;;;;;5034689;28;20439;-70
2021/03/03 05:10:17;;;;;;;26.85;14.73;;;7.00;99.90;;;;;;5052767;28;20082;-68
2021/03/03 05:12:42;;;;;;;31.60;14.57;;;6.70;99.90;;;;;;5052282;28;20099;-69
2021/03/03 05:15:09;;;;;;;22.55;14.05;;;6.70;99.90;;;;;;5052645;28;20085;-69
2021/03/03 05:17:34;;;;;;;24.15;14.20;;;6.60;99.90;;;;;;5033861;28;20124;-68
2021/03/03 05:20:00;;;;;;;23.85;14.43;;;6.70;99.90;;;;;;5035464;28;20032;-68
2021/03/03 05:22:25;;;;;;;25.45;14.40;;;6.70;99.90;;;;;;5052430;28;20130;-68
2021/03/03 05:24:51;;;;;;;21.45;14.10;;;6.60;99.90;;;;;;5034788;28;20037;-68
2021/03/03 05:27:17;;;;;;;21.50;14.25;;;6.50;99.90;;;;;;5034739;28;20389;-69
2021/03/03 05:29:42;;;;;;;25.48;14.30;;;6.40;99.90;;;;;;5034523;28;20108;-68
2021/03/03 05:32:08;;;;;;;23.45;14.80;;;6.30;99.90;;;;;;5034770;28;20033;-68
2021/03/03 05:34:34;;;;;;;21.23;14.65;;;6.50;99.90;;;;;;5052005;28;20056;-68
2021/03/03 05:37:00;;;;;;;26.90;15.10;;;6.40;99.90;;;;;;5035267;28;20048;-68
2021/03/03 05:39:26;;;;;;;24.38;14.77;;;6.20;99.90;;;;;;5052802;28;20331;-70
2021/03/03 05:41:51;;;;;;;28.00;17.67;;;6.30;99.90;;;;;;5035370;28;20482;-67
2021/03/03 05:44:18;;;;;;;24.05;15.10;;;6.40;99.90;;;;;;5035437;28;20111;-68
2021/03/03 05:46:46;;;;;;;24.23;14.80;;;6.40;99.90;;;;;;5034678;28;20029;-67
2021/03/03 05:49:17;;;;;;;22.52;14.57;;;6.40;99.90;;;;;;5052989;28;20053;-67
2021/03/03 05:51:43;;;;;;;23.65;14.05;;;6.50;99.90;;;;;;5052366;28;20063;-68
2021/03/03 05:54:09;;;;;;;24.02;14.93;;;6.50;99.90;;;;;;5035168;28;20029;-68
2021/03/03 05:56:36;;;;;;;29.83;14.38;;;6.50;99.90;;;;;;5052226;28;20031;-68
2021/03/03 05:59:02;;;;;;;22.65;14.63;;;6.50;99.90;;;;;;5035142;28;20032;-68
2021/03/03 06:01:28;;;;;;;25.17;14.20;;;6.40;99.90;;;;;;5034527;28;20035;-69
2021/03/03 06:03:56;;;;;;;26.92;15.65;;;6.30;99.90;;;;;;5052937;28;20021;-66
2021/03/03 06:06:21;;;;;;;24.73;14.80;;;6.40;99.90;;;;;;5035499;28;20091;-67
2021/03/03 06:08:48;;;;;;;21.60;15.05;;;6.50;99.90;;;;;;5034406;28;20458;-67
2021/03/03 06:11:14;;;;;;;28.27;16.23;;;6.40;99.90;;;;;;5052639;28;20033;-69
2021/03/03 06:13:40;;;;;;;25.98;15.05;;;6.50;99.90;;;;;;5052567;28;20032;-68
2021/03/03 06:16:06;;;;;;;24.45;15.13;;;6.50;99.90;;;;;;5052438;28;20071;-67
2021/03/03 06:18:31;;;;;;;28.48;16.30;;;6.40;99.90;;;;;;5034364;28;20028;-68
2021/03/03 06:20:57;;;;;;;24.88;15.95;;;6.30;99.90;;;;;;5034851;28;20036;-67
2021/03/03 06:23:24;;;;;;;26.60;15.63;;;6.30;99.90;;;;;;5054747;28;20542;-68
2021/03/03 06:25:56;;;;;;;24.17;15.23;;;6.30;99.90;;;;;;5033172;28;20021;-67
2021/03/03 06:28:32;;;;;;;;;;;6.40;99.90;;;;;;5034866;28;20122;-68
2021/03/03 06:30:58;;;;;;;23.60;15.40;;;6.40;99.90;;;;;;5052473;28;19905;-67
2021/03/03 06:33:28;;;;;;;23.80;14.48;;;6.30;99.90;;;;;;5052232;28;20033;-67
2021/03/03 06:35:54;;;;;;;31.30;16.00;;;6.20;99.90;;;;;;5034517;28;20096;-69
2021/03/03 06:38:31;;;;;;;27.58;17.05;;;6.20;99.90;;;;;;5033944;28;20032;-68
2021/03/03 06:41:00;;;;;;;24.50;16.05;;;6.00;99.90;;;;;;5035275;28;20021;-69
2021/03/03 06:43:28;;;;;;;27.17;14.77;;;6.10;99.90;;;;;;5052590;28;20045;-68
2021/03/03 06:45:54;;;;;;;23.90;14.75;;;5.90;99.90;;;;;;5033933;28;20113;-68
2021/03/03 06:48:37;;;;;;;26.52;15.18;;;5.90;99.90;;;;;;5034370;28;20485;-68
2021/03/03 06:51:25;;;;;;;24.77;14.98;;;5.90;99.90;;;;;;5052342;28;20020;-68
2021/03/03 06:53:52;;;;;;;26.88;14.55;;;5.90;99.90;;;;;;5051381;28;20033;-68
2021/03/03 06:56:34;;;;;;;26.05;15.25;;;5.80;99.90;;;;;;5052035;28;20025;-68
2021/03/03 06:59:16;;;;;;;;;;;5.90;99.90;;;;;;5052724;28;20025;-69
2021/03/03 07:01:47;;;;;;;31.20;13.80;;;5.90;99.90;;;;;;5051044;28;19966;-69
2021/03/03 07:04:24;;;;;;;24.75;13.80;;;6.00;99.90;;;;;;5034638;28;20386;-69
2021/03/03 07:06:51;;;;;;;22.75;14.05;;;5.90;99.90;;;;;;5034090;28;20232;-69
2021/03/03 07:09:18;;;;;;;26.75;14.55;;;5.80;99.90;;;;;;5034531;28;20386;-69
2021/03/03 07:11:43;;;;;;;29.50;13.82;;;5.80;99.90;;;;;;5033419;28;20095;-70
2021/03/03 07:14:16;;;;;;;30.35;15.57;;;6.00;99.90;;;;;;5052222;28;20462;-69
2021/03/03 07:17:00;;;;;;;28.45;15.02;;;6.10;99.90;;;;;;5033465;28;20021;-67
2021/03/03 07:19:26;;;;;;;28.30;14.68;;;5.90;99.90;;;;;;5052014;28;20033;-68
2021/03/03 07:21:52;;;;;;;33.78;16.15;;;6.10;99.90;;;;;;5033055;28;20482;-68
2021/03/03 07:24:18;;;;;;;35.17;14.65;;;6.10;99.90;;;;;;5033601;28;20025;-67
2021/03/03 07:26:45;;;;;;;32.60;14.90;;;6.10;99.90;;;;;;5032263;28;20021;-68
2021/03/03 07:29:11;;;;;;;29.77;17.38;;;6.00;99.90;;;;;;5033417;28;20124;-68
2021/03/03 07:31:39;;;;;;;28.23;15.93;;;5.90;99.90;;;;;;5032808;28;20029;-68
2021/03/03 07:34:06;;;;;;;30.88;16.27;;;5.90;99.90;;;;;;5051817;28;20090;-68
2021/03/03 07:36:36;;;;;;;29.33;17.40;;;6.10;99.90;;;;;;5033033;28;20118;-70
2021/03/03 07:39:12;;;;;;;33.70;14.90;;;6.20;99.90;;;;;;5034443;28;20028;-68
2021/03/03 07:41:48;;;;;;;26.27;14.98;;;6.00;99.90;;;;;;5042732;28;20028;-69
2021/03/03 07:44:19;;;;;;;40.72;18.25;;;6.10;99.90;;;;;;5060521;28;20056;-69
2021/03/03 07:46:48;;;;;;;29.10;15.70;;;6.20;99.90;;;;;;5058799;28;20067;-68
2021/03/03 07:49:19;;;;;;;26.88;15.95;;;6.40;99.90;;;;;;5058492;28;20025;-68
2021/03/03 07:51:45;;;;;;;31.80;16.77;;;6.40;99.90;;;;;;5040529;28;20031;-67
2021/03/03 07:54:12;;;;;;;33.17;16.48;;;6.30;99.90;;;;;;5059870;28;20037;-68
2021/03/03 07:56:39;;;;;;;25.63;15.63;;;6.20;99.90;;;;;;5041215;28;20207;-68
2021/03/03 07:59:09;;;;;;;26.30;16.05;;;6.40;99.90;;;;;;5041536;28;20090;-68
2021/03/03 08:01:36;;;;;;;26.90;15.07;;;6.60;99.90;;;;;;5040453;28;20027;-68
2021/03/03 08:04:02;;;;;;;27.20;15.88;;;6.70;99.90;;;;;;5056443;28;20450;-68
2021/03/03 08:06:36;;;;;;;28.52;15.82;;;6.80;99.90;;;;;;5068192;28;20021;-68
2021/03/03 08:09:05;;;;;;;29.85;15.77;;;6.80;99.90;;;;;;5044309;28;20036;-68
2021/03/03 08:11:39;;;;;;;31.17;17.35;;;7.00;99.90;;;;;;5044725;28;20037;-67
2021/03/03 08:14:29;;;;;;;33.72;15.73;;;7.00;99.90;;;;;;5062987;28;20041;-69
2021/03/03 08:16:56;;;;;;;30.55;15.32;;;7.20;99.90;;;;;;5047728;28;20116;-68
2021/03/03 08:19:22;;;;;;;29.10;15.75;;;7.40;99.90;;;;;;5070347;28;20087;-67
2021/03/03 08:21:48;;;;;;;35.78;16.05;;;7.60;99.90;;;;;;5051653;28;20055;-68
2021/03/03 08:24:43;;;;;;;29.98;16.20;;;7.50;99.90;;;;;;5088901;28;20044;-68
2021/03/03 08:27:45;;;;;;;33.13;16.98;;;7.60;99.90;;;;;;5068058;28;20044;-68
2021/03/03 08:30:14;;;;;;;30.60;16.45;;;7.60;99.90;;;;;;4991667;28;20184;-68
2021/03/03 08:32:40;;;;;;;30.95;15.90;;;7.70;99.90;;;;;;5083098;28;20076;-68
2021/03/03 08:35:08;;;;;;;30.83;16.33;;;7.70;99.90;;;;;;5070911;28;20039;-68
2021/03/03 08:37:36;;;;;;;38.05;16.80;;;8.00;99.90;;;;;;5070521;28;20476;-68
2021/03/03 08:40:22;;;;;;;34.85;16.85;;;7.80;99.90;;;;;;5068733;28;20039;-68
2021/03/03 08:42:48;;;;;;;54.38;17.08;;;7.70;99.90;;;;;;5072526;28;20028;-68
2021/03/03 08:45:15;;;;;;;31.30;17.83;;;7.70;99.90;;;;;;5090046;28;20499;-68
2021/03/03 08:47:46;;;;;;;37.70;17.45;;;7.70;99.90;;;;;;5088806;28;20462;-69
2021/03/03 08:50:33;;;;;;;46.80;17.17;;;7.60;99.90;;;;;;5093274;28;20028;-69
2021/03/03 08:53:19;;;;;;;38.33;17.92;;;7.30;99.90;;;;;;5094232;28;20085;-67
2021/03/03 08:55:45;;;;;;;30.15;16.70;;;7.30;99.90;;;;;;5091861;28;20096;-69
2021/03/03 08:58:33;;;;;;;32.33;17.05;;;7.20;99.90;;;;;;5092678;28;20384;-68
2021/03/03 09:00:59;;;;;;;33.15;16.73;;;7.70;99.90;;;;;;5093481;28;20147;-68
2021/03/03 09:03:25;;;;;;;26.17;16.95;;;8.00;99.90;;;;;;5091215;28;20024;-69
2021/03/03 09:05:53;;;;;;;29.55;16.42;;;8.20;99.90;;;;;;5091612;28;20032;-69
2021/03/03 09:08:20;;;;;;;36.58;16.92;;;8.70;99.90;;;;;;5092147;28;20144;-68
2021/03/03 09:10:47;;;;;;;28.80;16.38;;;9.10;99.90;;;;;;5092689;28;20036;-69
2021/03/03 09:13:26;;;;;;;22.88;14.80;;;9.50;99.90;;;;;;5092756;28;20576;-69
2021/03/03 09:16:06;;;;;;;30.63;16.52;;;9.90;99.90;;;;;;5092050;28;20518;-69
2021/03/03 09:18:33;;;;;;;42.58;16.50;;;9.60;99.90;;;;;;5093369;28;20028;-69
2021/03/03 09:21:10;;;;;;;29.30;16.80;;;10.00;99.90;;;;;;5094333;28;20028;-68
2021/03/03 09:23:37;;;;;;;28.95;15.50;;;9.70;99.90;;;;;;5078910;28;20513;-70
2021/03/03 09:26:21;;;;;;;25.48;16.00;;;9.70;99.90;;;;;;5046608;28;20132;-68
2021/03/03 09:28:47;;;;;;;29.27;15.57;;;9.60;99.90;;;;;;5040399;28;20020;-67
2021/03/03 09:31:30;;;;;;;31.45;17.23;;;9.70;99.90;;;;;;5063334;28;20029;-67
2021/03/03 09:33:57;;;;;;;26.65;15.45;;;9.80;99.90;;;;;;5072325;28;20060;-69
2021/03/03 09:36:24;;;;;;;22.48;14.95;;;9.60;99.90;;;;;;5073486;28;20028;-67
2021/03/03 09:39:00;;;;;;;26.77;16.92;;;9.90;99.90;;;;;;5054550;28;20028;-68
2021/03/03 09:41:27;;;;;;;28.40;16.92;;;9.70;99.90;;;;;;5055133;28;20455;-69
2021/03/03 09:44:04;;;;;;;25.80;15.65;;;9.70;99.90;;;;;;5062125;28;20036;-69
2021/03/03 09:46:51;;;;;;;30.85;17.10;;;9.90;99.90;;;;;;5076916;28;20013;-68
2021/03/03 09:49:28;;;;;;;25.90;16.80;;;10.50;99.60;;;;;;5048025;28;20029;-66
2021/03/03 09:51:54;;;;;;;24.77;16.80;;;10.90;98.40;;;;;;5053194;28;20028;-68
2021/03/03 09:54:27;;;;;;;27.45;17.58;;;10.80;98.70;;;;;;5051436;28;20048;-68
2021/03/03 09:56:53;;;;;;;23.83;17.35;;;10.80;98.80;;;;;;5053462;28;20063;-69
2021/03/03 09:59:19;;;;;;;27.20;17.75;;;10.30;99.70;;;;;;5071075;28;20056;-68
2021/03/03 10:01:45;;;;;;;26.95;17.23;;;10.40;99.50;;;;;;5068357;28;20038;-68
2021/03/03 10:04:11;;;;;;;26.38;16.05;;;10.50;99.30;;;;;;5056880;28;20111;-67
2021/03/03 10:06:37;;;;;;;25.65;18.10;;;10.30;99.70;;;;;;5053823;28;20092;-68
2021/03/03 10:09:03;;;;;;;30.05;17.35;;;10.50;99.40;;;;;;5071523;28;20103;-68
2021/03/03 10:11:29;;;;;;;26.67;17.33;;;10.70;99.30;;;;;;5071639;28;20498;-68
2021/03/03 10:14:05;;;;;;;21.50;15.80;;;11.20;98.40;;;;;;5053231;28;20378;-69
2021/03/03 10:16:31;;;;;;;29.98;18.60;;;11.50;97.80;;;;;;5050704;28;20024;-69
2021/03/03 10:19:04;;;;;;;27.75;18.30;;;11.50;96.90;;;;;;5071493;28;20561;-68
2021/03/03 10:21:31;;;;;;;35.42;18.30;;;11.10;97.90;;;;;;5071070;28;20040;-66
2021/03/03 10:23:56;;;;;;;32.78;18.35;;;11.10;97.80;;;;;;5071343;28;20146;-68
2021/03/03 10:26:45;;;;;;;32.25;18.67;;;11.20;97.90;;;;;;5072931;28;20051;-67
2021/03/03 10:29:10;;;;;;;27.73;17.60;;;11.50;97.20;;;;;;5076416;28;20484;-68
2021/03/03 10:31:39;;;;;;;32.95;17.65;;;11.80;96.70;;;;;;5074810;28;20032;-67
2021/03/03 10:34:11;;;;;;;29.25;18.70;;;11.90;96.30;;;;;;5073391;28;20024;-70
2021/03/03 10:36:42;;;;;;;26.95;17.75;;;12.20;96.00;;;;;;5043397;28;20043;-68
2021/03/03 10:39:09;;;;;;;32.92;18.58;;;12.20;95.90;;;;;;5057836;28;20049;-71
2021/03/03 10:41:36;;;;;;;32.83;20.33;;;12.60;94.90;;;;;;5039765;28;20183;-72
2021/03/03 10:44:04;;;;;;;29.90;17.20;;;13.30;94.40;;;;;;5060695;28;20244;-71
2021/03/03 10:46:31;;;;;;;35.10;19.10;;;13.80;94.10;;;;;;5070528;28;20537;-70
2021/03/03 10:49:14;;;;;;;27.15;17.67;;;14.40;92.20;;;;;;5048939;28;20441;-70
2021/03/03 10:51:40;;;;;;;26.17;18.50;;;14.60;90.70;;;;;;5068219;28;20419;-69
2021/03/03 10:54:07;;;;;;;29.98;18.75;;;14.30;91.60;;;;;;5033941;28;20044;-69
2021/03/03 10:56:34;;;;;;;26.70;18.65;;;13.90;91.10;;;;;;5033764;28;20032;-68
2021/03/03 10:59:05;;;;;;;24.92;18.50;;;14.70;90.10;;;;;;5032909;28;20025;-68
2021/03/03 11:01:46;;;;;;;31.90;18.50;;;14.70;89.20;;;;;;5046812;28;20024;-68
2021/03/03 11:04:12;;;;;;;29.50;18.58;;;15.20;86.80;;;;;;5053470;28;20035;-69
2021/03/03 11:06:38;;;;;;;27.33;18.08;;;14.70;86.70;;;;;;5070877;28;20380;-68
2021/03/03 11:09:07;;;;;;;27.13;19.50;;;14.20;88.70;;;;;;5052699;28;20021;-67
2021/03/03 11:11:33;;;;;;;32.03;19.60;;;14.30;88.50;;;;;;5051061;28;20032;-68
2021/03/03 11:13:58;;;;;;;30.38;19.40;;;14.60;88.30;;;;;;5032156;28;20079;-68
2021/03/03 11:16:24;;;;;;;32.60;18.98;;;15.00;85.60;;;;;;5033355;28;20029;-68
2021/03/03 11:18:50;;;;;;;29.13;18.45;;;15.30;84.10;;;;;;5032680;28;20060;-68
2021/03/03 11:21:16;;;;;;;25.02;17.02;;;15.60;82.70;;;;;;5050543;28;20025;-69
2021/03/03 11:23:42;;;;;;;31.85;17.92;;;16.10;80.20;;;;;;5050692;28;20037;-68
2021/03/03 11:26:07;;;;;;;25.98;17.83;;;16.10;80.90;;;;;;5034597;28;20411;-69
2021/03/03 11:28:33;;;;;;;27.58;18.60;;;16.90;89.70;;;;;;5084772;28;20024;-69
2021/03/03 11:30:59;;;;;;;34.47;18.98;;;16.80;77.60;;;;;;5091216;28;20342;-70
2021/03/03 11:33:24;;;;;;;33.20;19.50;;;17.30;73.90;;;;;;5074172;28;20064;-68
2021/03/03 11:35:50;;;;;;;35.40;18.45;;;16.70;72.50;;;;;;5072864;28;20518;-68
2021/03/03 11:38:16;;;;;;;36.50;19.05;;;16.80;73.20;;;;;;5073985;28;20043;-68
2021/03/03 11:40:42;;;;;;;60.80;20.20;;;16.90;71.60;;;;;;5073687;28;20092;-66
2021/03/03 11:43:07;;;;;;;37.90;18.80;;;17.00;72.00;;;;;;5072647;28;20028;-68
2021/03/03 11:45:33;;;;;;;28.15;18.75;;;17.00;70.20;;;;;;5091920;28;20036;-67
2021/03/03 11:47:59;;;;;;;31.33;19.38;;;16.90;70.50;;;;;;5090342;28;20023;-66
2021/03/03 11:50:25;;;;;;;34.17;18.10;;;17.00;69.10;;;;;;5072891;28;20115;-65
2021/03/03 11:52:51;;;;;;;36.60;19.15;;;17.00;69.30;;;;;;5071323;28;20112;-68
2021/03/03 11:55:17;;;;;;;31.85;18.42;;;16.40;70.40;;;;;;5070377;28;20462;-69
2021/03/03 11:57:42;;;;;;;29.65;18.15;;;16.70;71.00;;;;;;5084089;28;20441;-69
2021/03/03 12:00:11;;;;;;;30.85;19.25;;;16.60;70.10;;;;;;5090636;28;20028;-69
2021/03/03 12:02:37;;;;;;;30.67;17.98;;;16.40;70.90;;;;;;5072585;28;20032;-69
2021/03/03 12:05:04;;;;;;;29.65;17.88;;;16.60;70.20;;;;;;5071949;28;20496;-68
2021/03/03 12:07:30;;;;;;;27.77;16.83;;;17.00;68.90;;;;;;5090596;28;20031;-68
2021/03/03 12:09:56;;;;;;;31.45;18.45;;;17.40;68.40;;;;;;5072047;28;20036;-68
2021/03/03 12:12:21;;;;;;;30.45;18.42;;;16.80;68.30;;;;;;5090810;28;20032;-68
2021/03/03 12:14:47;;;;;;;33.03;18.23;;;16.70;69.60;;;;;;5071615;28;20046;-68
2021/03/03 12:17:14;;;;;;;27.10;18.45;;;17.10;68.00;;;;;;5071928;28;20035;-68
2021/03/03 12:19:40;;;;;;;31.48;17.83;;;17.30;67.20;;;;;;5090370;28;20434;-69
2021/03/03 12:22:06;;;;;;;25.52;17.75;;;17.30;68.00;;;;;;5059984;28;20047;-68
2021/03/03 12:24:32;;;;;;;26.27;18.50;;;17.20;67.30;;;;;;5091390;28;20496;-69
2021/03/03 12:26:57;;;;;;;31.55;18.35;;;17.40;65.40;;;;;;5075235;28;20035;-69
2021/03/03 12:29:23;;;;;;;27.10;18.38;;;16.90;66.60;;;;;;5076217;28;20028;-69
2021/03/03 12:31:49;;;;;;;26.40;17.48;;;17.50;65.10;;;;;;5094142;28;20032;-69
2021/03/03 12:34:14;;;;;;;30.77;17.40;;;17.60;64.70;;;;;;5084160;28;20021;-69
2021/03/03 12:36:40;;;;;;;29.50;16.90;;;17.70;63.00;;;;;;5056655;28;20020;-70
2021/03/03 12:39:06;;;;;;;25.35;15.95;;;17.00;63.90;;;;;;5073945;28;20113;-68
2021/03/03 12:41:32;;;;;;;23.23;14.63;;;17.40;63.00;;;;;;5074057;28;20028;-69